createdAt,value
2023-09-27T00:00:38.543Z,17.22
2023-09-27T00:03:06.608Z,17.22
2023-09-27T00:05:34.546Z,17.20
2023-09-27T00:08:03.587Z,17.18
2023-09-27T00:10:31.308Z,17.15
2023-09-27T00:12:59.041Z,17.14
2023-09-27T00:15:28.287Z,17.13
2023-09-27T00:17:56.363Z,17.12
2023-09-27T00:20:24.272Z,17.12
2023-09-27T00:22:52.067Z,17.11
2023-09-27T00:25:20.413Z,17.10
2023-09-27T00:27:48.122Z,17.09
2023-09-27T00:30:16.207Z,17.07
2023-09-27T00:32:46.782Z,17.06
2023-09-27T00:35:20.244Z,17.06
2023-09-27T00:37:48.447Z,17.04
2023-09-27T00:40:19.221Z,17.03
2023-09-27T00:42:48.448Z,17.02
2023-09-27T00:45:16.879Z,17.01
2023-09-27T00:47:48.103Z,16.99
2023-09-27T00:50:16.394Z,16.96
2023-09-27T00:52:47.653Z,16.97
2023-09-27T00:55:18.177Z,16.94
2023-09-27T00:57:46.593Z,16.93
2023-09-27T01:00:16.226Z,16.93
2023-09-27T01:02:44.151Z,16.92
2023-09-27T01:05:13.422Z,16.91
2023-09-27T01:07:41.622Z,16.90
2023-09-27T01:10:11.070Z,16.88
2023-09-27T01:12:39.112Z,16.88
2023-09-27T01:15:08.512Z,16.87
2023-09-27T01:17:36.701Z,16.86
2023-09-27T01:20:09.592Z,16.86
2023-09-27T01:22:38.669Z,16.83
2023-09-27T01:25:13.440Z,16.80
2023-09-27T01:27:42.244Z,16.81
2023-09-27T01:30:10.956Z,16.80
2023-09-27T01:32:38.791Z,16.78
2023-09-27T01:35:07.426Z,16.78
2023-09-27T01:37:35.247Z,16.77
2023-09-27T01:40:03.194Z,16.76
2023-09-27T01:42:32.181Z,16.75
2023-09-27T01:44:59.829Z,16.75
2023-09-27T01:47:27.668Z,16.72
2023-09-27T01:49:56.435Z,16.73
2023-09-27T01:52:24.138Z,16.71
2023-09-27T01:54:51.846Z,16.71
2023-09-27T01:57:19.464Z,16.70
2023-09-27T01:59:48.500Z,16.68
2023-09-27T02:02:16.258Z,16.67
2023-09-27T02:04:44.192Z,16.66
2023-09-27T02:07:11.858Z,16.66
2023-09-27T02:09:39.619Z,16.66
2023-09-27T02:12:07.888Z,16.64
2023-09-27T02:14:35.528Z,16.64
2023-09-27T02:17:04.564Z,16.63
2023-09-27T02:19:32.296Z,16.64
2023-09-27T02:21:59.959Z,16.63
2023-09-27T02:24:27.660Z,16.64
2023-09-27T02:26:55.335Z,16.66
2023-09-27T02:29:23.326Z,16.63
2023-09-27T02:31:51.910Z,16.61
2023-09-27T02:34:20.968Z,16.58
2023-09-27T02:36:49.838Z,16.57
2023-09-27T02:39:17.699Z,16.58
2023-09-27T02:41:45.422Z,16.57
2023-09-27T02:44:13.564Z,16.57
2023-09-27T02:46:42.637Z,16.56
2023-09-27T02:49:10.461Z,16.55
2023-09-27T02:51:41.284Z,16.55
2023-09-27T02:54:08.981Z,16.55
2023-09-27T02:56:37.198Z,16.53
2023-09-27T02:59:04.955Z,16.54
2023-09-27T03:01:32.696Z,16.54
2023-09-27T03:04:00.415Z,16.53
2023-09-27T03:06:28.286Z,16.53
2023-09-27T03:08:57.326Z,16.52
2023-09-27T03:11:25.173Z,16.52
2023-09-27T03:13:52.877Z,16.50
2023-09-27T03:16:21.218Z,16.52
2023-09-27T03:18:49.526Z,16.50
2023-09-27T03:21:18.229Z,16.50
2023-09-27T03:23:45.953Z,16.49
2023-09-27T03:26:15.808Z,16.48
2023-09-27T03:28:43.610Z,16.48
2023-09-27T03:31:11.818Z,16.46
2023-09-27T03:33:39.491Z,16.47
2023-09-27T03:36:08.408Z,16.47
2023-09-27T03:38:37.708Z,16.46
2023-09-27T03:41:09.497Z,16.44
2023-09-27T03:43:38.575Z,16.44
2023-09-27T03:46:06.346Z,16.43
2023-09-27T03:48:34.332Z,16.43
2023-09-27T03:51:01.952Z,16.43
2023-09-27T03:53:29.650Z,16.44
2023-09-27T03:55:57.412Z,16.43
2023-09-27T03:58:25.224Z,16.44
2023-09-27T04:00:54.332Z,16.42
2023-09-27T04:03:22.561Z,16.42
2023-09-27T04:05:50.327Z,16.43
2023-09-27T04:08:18.912Z,16.42
2023-09-27T04:10:47.415Z,16.41
2023-09-27T04:13:15.062Z,16.41
2023-09-27T04:15:43.195Z,16.44
2023-09-27T04:18:12.366Z,16.42
2023-09-27T04:20:40.102Z,16.43
2023-09-27T04:23:08.022Z,16.45
2023-09-27T04:25:35.711Z,16.45
2023-09-27T04:28:03.524Z,16.43
2023-09-27T04:30:31.193Z,16.42
2023-09-27T04:32:58.905Z,16.39
2023-09-27T04:35:28.031Z,16.40
2023-09-27T04:37:55.785Z,16.38
2023-09-27T04:40:23.497Z,16.39
2023-09-27T04:42:51.169Z,16.39
2023-09-27T04:45:18.806Z,16.38
2023-09-27T04:47:47.085Z,16.36
2023-09-27T04:50:16.320Z,16.36
2023-09-27T04:52:46.420Z,16.36
2023-09-27T04:55:14.892Z,16.36
2023-09-27T04:57:42.767Z,16.34
2023-09-27T05:00:19.891Z,16.34
2023-09-27T05:02:48.336Z,16.34
2023-09-27T05:05:17.381Z,16.34
2023-09-27T05:07:46.719Z,16.33
2023-09-27T05:10:14.505Z,16.32
2023-09-27T05:12:42.291Z,16.31
2023-09-27T05:15:10.968Z,16.33
2023-09-27T05:17:38.940Z,16.32
2023-09-27T05:20:11.291Z,16.32
2023-09-27T05:22:39.672Z,16.32
2023-09-27T05:25:09.907Z,16.32
2023-09-27T05:27:37.656Z,16.33
2023-09-27T05:30:08.691Z,16.33
2023-09-27T05:32:36.545Z,16.33
2023-09-27T05:35:06.371Z,16.35
2023-09-27T05:37:37.123Z,16.36
2023-09-27T05:40:07.949Z,16.35
2023-09-27T05:42:37.268Z,16.36
2023-09-27T05:45:06.099Z,16.35
2023-09-27T05:47:35.379Z,16.35
2023-09-27T05:50:05.113Z,16.35
2023-09-27T05:52:34.324Z,16.37
2023-09-27T05:55:02.126Z,16.39
2023-09-27T05:57:30.381Z,16.39
2023-09-27T05:59:59.739Z,16.41
2023-09-27T06:02:32.491Z,16.41
2023-09-27T06:05:01.850Z,16.42
2023-09-27T06:07:29.898Z,16.43
2023-09-27T06:09:57.576Z,16.44
2023-09-27T06:12:26.260Z,16.44
2023-09-27T06:14:53.879Z,16.44
2023-09-27T06:17:23.005Z,16.45
2023-09-27T06:19:51.109Z,16.46
2023-09-27T06:22:18.763Z,16.47
2023-09-27T06:24:47.503Z,16.50
2023-09-27T06:27:15.210Z,16.51
2023-09-27T06:29:42.870Z,16.53
2023-09-27T06:32:10.688Z,16.52
2023-09-27T06:34:39.755Z,16.51
2023-09-27T06:37:08.437Z,16.53
2023-09-27T06:39:36.370Z,16.53
2023-09-27T06:42:04.521Z,16.57
2023-09-27T06:44:34.877Z,16.57
2023-09-27T06:47:03.456Z,16.58
2023-09-27T06:49:32.166Z,16.63
2023-09-27T06:52:01.200Z,16.64
2023-09-27T06:54:28.847Z,16.66
2023-09-27T06:56:56.528Z,16.68
2023-09-27T06:59:24.199Z,16.71
2023-09-27T07:01:51.895Z,16.73
2023-09-27T07:04:19.634Z,16.73
2023-09-27T07:06:47.738Z,16.75
2023-09-27T07:09:17.721Z,16.76
2023-09-27T07:11:45.654Z,16.77
2023-09-27T07:14:16.666Z,16.79
2023-09-27T07:16:58.452Z,16.80
2023-09-27T07:19:28.386Z,16.82
2023-09-27T07:21:57.051Z,16.86
2023-09-27T07:24:26.074Z,16.90
2023-09-27T07:26:54.445Z,16.93
2023-09-27T07:29:22.382Z,16.94
2023-09-27T07:31:50.629Z,16.96
2023-09-27T07:34:19.278Z,16.98
2023-09-27T07:36:46.909Z,16.97
2023-09-27T07:39:16.761Z,17.00
2023-09-27T07:41:46.114Z,17.02
2023-09-27T07:44:13.955Z,17.05
2023-09-27T07:46:42.022Z,17.07
2023-09-27T07:49:10.526Z,17.09
2023-09-27T07:51:38.206Z,17.12
2023-09-27T07:54:09.565Z,17.18
2023-09-27T07:56:41.018Z,17.21
2023-09-27T07:59:10.262Z,17.23
2023-09-27T08:01:38.404Z,17.30
2023-09-27T08:04:11.831Z,17.33
2023-09-27T08:06:41.664Z,17.38
2023-09-27T08:09:20.513Z,17.37
2023-09-27T08:11:55.926Z,17.41
2023-09-27T08:14:25.075Z,17.48
2023-09-27T08:16:53.575Z,17.56
2023-09-27T08:19:22.066Z,17.64
2023-09-27T08:21:49.778Z,17.64
2023-09-27T08:24:18.301Z,17.63
2023-09-27T08:26:47.268Z,17.65
2023-09-27T08:29:15.520Z,17.65
2023-09-27T08:31:45.675Z,17.65
2023-09-27T08:34:13.642Z,17.68
2023-09-27T08:36:41.428Z,17.70
2023-09-27T08:39:10.640Z,17.74
2023-09-27T08:41:40.352Z,17.74
2023-09-27T08:44:08.857Z,17.79
2023-09-27T08:46:38.108Z,17.95
2023-09-27T08:49:10.578Z,18.00
2023-09-27T08:51:41.134Z,17.95
2023-09-27T08:54:08.948Z,18.03
2023-09-27T08:56:37.506Z,18.15
2023-09-27T08:59:06.123Z,18.21
2023-09-27T09:01:34.709Z,18.17
2023-09-27T09:04:03.804Z,18.12
2023-09-27T09:06:34.533Z,18.08
2023-09-27T09:09:12.342Z,18.12
2023-09-27T09:11:48.592Z,18.11
2023-09-27T09:14:18.269Z,18.12
2023-09-27T09:16:53.088Z,18.13
2023-09-27T09:19:41.168Z,18.09
2023-09-27T09:22:14.701Z,18.10
2023-09-27T09:24:44.824Z,18.14
2023-09-27T09:27:17.420Z,18.12
2023-09-27T09:29:48.052Z,18.15
2023-09-27T09:32:18.966Z,18.17
2023-09-27T09:34:47.642Z,18.18
2023-09-27T09:37:22.283Z,18.21
2023-09-27T09:39:51.759Z,18.26
2023-09-27T09:42:32.862Z,18.28
2023-09-27T09:45:06.854Z,18.30
2023-09-27T09:47:36.505Z,18.33
2023-09-27T09:50:10.209Z,18.35
2023-09-27T09:52:40.782Z,18.38
2023-09-27T09:55:25.997Z,18.39
2023-09-27T09:58:01.293Z,18.41
2023-09-27T10:00:31.437Z,18.45
2023-09-27T10:03:05.249Z,18.46
2023-09-27T10:05:39.334Z,18.50
2023-09-27T10:08:09.052Z,18.53
2023-09-27T10:10:38.391Z,18.56
2023-09-27T10:13:08.044Z,18.59
2023-09-27T10:15:36.442Z,18.63
2023-09-27T10:18:38.530Z,18.64
2023-09-27T10:21:09.619Z,18.65
2023-09-27T10:24:02.061Z,18.69
2023-09-27T10:26:34.728Z,18.70
2023-09-27T10:29:13.773Z,18.72
2023-09-27T10:32:21.399Z,18.74
2023-09-27T10:34:49.953Z,18.77
2023-09-27T10:37:21.004Z,18.80
2023-09-27T10:40:22.437Z,18.81
2023-09-27T10:42:50.528Z,18.84
2023-09-27T10:45:18.914Z,18.86
2023-09-27T10:47:48.069Z,18.86
2023-09-27T10:50:17.749Z,18.88
2023-09-27T10:52:45.640Z,18.90
2023-09-27T10:55:15.293Z,18.91
2023-09-27T10:57:44.418Z,18.93
2023-09-27T11:00:15.090Z,18.94
2023-09-27T11:02:43.894Z,18.96
2023-09-27T11:05:11.738Z,18.99
2023-09-27T11:07:50.547Z,19.01
2023-09-27T11:10:33.380Z,19.02
2023-09-27T11:13:13.921Z,19.02
2023-09-27T11:15:43.068Z,19.06
2023-09-27T11:18:12.017Z,19.06
2023-09-27T11:20:40.761Z,19.09
2023-09-27T11:23:08.725Z,19.10
2023-09-27T11:25:38.797Z,19.12
2023-09-27T11:28:18.289Z,19.12
2023-09-27T11:30:46.129Z,19.13
2023-09-27T11:33:17.796Z,19.14
2023-09-27T11:35:49.503Z,19.17
2023-09-27T11:38:17.530Z,19.17
2023-09-27T11:40:47.478Z,19.20
2023-09-27T11:43:15.503Z,19.20
2023-09-27T11:45:46.357Z,19.22
2023-09-27T11:48:14.833Z,19.24
2023-09-27T11:50:42.926Z,19.25
2023-09-27T11:53:11.950Z,19.26
2023-09-27T11:55:40.949Z,19.28
2023-09-27T11:58:09.518Z,19.28
2023-09-27T12:00:37.217Z,19.29
2023-09-27T12:03:06.950Z,19.31
2023-09-27T12:05:37.013Z,19.31
2023-09-27T12:08:05.500Z,19.34
2023-09-27T12:10:33.238Z,19.34
2023-09-27T12:13:01.631Z,19.36
2023-09-27T12:15:29.332Z,19.37
2023-09-27T12:17:57.148Z,19.38
2023-09-27T12:20:39.526Z,19.39
2023-09-27T12:23:10.308Z,19.41
2023-09-27T12:25:38.915Z,19.41
2023-09-27T12:28:07.417Z,19.42
2023-09-27T12:30:35.176Z,19.42
2023-09-27T12:33:03.150Z,19.43
2023-09-27T12:35:32.720Z,19.44
2023-09-27T12:38:04.996Z,19.45
2023-09-27T12:40:34.462Z,19.45
2023-09-27T12:43:05.555Z,19.46
2023-09-27T12:45:33.536Z,19.48
2023-09-27T12:48:01.441Z,19.50
2023-09-27T12:50:29.364Z,19.50
2023-09-27T12:52:58.816Z,19.50
2023-09-27T12:55:26.555Z,19.52
2023-09-27T12:57:54.276Z,19.52
2023-09-27T13:00:22.690Z,19.52
2023-09-27T13:02:50.569Z,19.56
2023-09-27T13:05:18.559Z,19.63
2023-09-27T13:07:46.256Z,19.62
2023-09-27T13:10:15.433Z,19.59
2023-09-27T13:12:44.109Z,19.59
2023-09-27T13:15:12.735Z,19.58
2023-09-27T13:17:40.563Z,19.57
2023-09-27T13:20:11.331Z,19.57
2023-09-27T13:22:39.561Z,19.59
2023-09-27T13:25:08.173Z,19.59
2023-09-27T13:27:38.058Z,19.58
2023-09-27T13:32:36.069Z,19.59
2023-09-27T13:35:05.369Z,19.61
2023-09-27T13:37:33.041Z,19.61
2023-09-27T13:40:02.644Z,19.62
2023-09-27T13:42:30.446Z,19.61
2023-09-27T13:44:59.616Z,19.63
2023-09-27T13:47:27.442Z,19.63
2023-09-27T13:49:55.189Z,19.62
2023-09-27T13:52:22.914Z,19.62
2023-09-27T13:54:50.603Z,19.62
2023-09-27T13:57:19.122Z,19.63
2023-09-27T13:59:47.224Z,19.63
2023-09-27T14:02:16.289Z,19.63
2023-09-27T14:04:45.554Z,19.63
2023-09-27T14:07:13.280Z,19.65
2023-09-27T14:09:41.049Z,19.65
2023-09-27T14:12:08.791Z,19.65
2023-09-27T14:14:36.445Z,19.66
2023-09-27T14:17:04.168Z,19.66
2023-09-27T14:19:33.260Z,19.66
2023-09-27T14:22:00.954Z,19.66
2023-09-27T14:24:29.332Z,19.67
2023-09-27T14:26:57.288Z,19.67
2023-09-27T14:31:58.243Z,19.67
2023-09-27T14:34:26.057Z,19.67
2023-09-27T14:36:56.093Z,19.67
2023-09-27T14:39:24.254Z,19.67
2023-09-27T14:41:52.199Z,19.69
2023-09-27T14:44:19.876Z,19.70
2023-09-27T14:46:47.691Z,19.70
2023-09-27T14:49:16.003Z,19.70
2023-09-27T14:51:43.998Z,19.71
2023-09-27T14:54:13.105Z,19.70
2023-09-27T14:56:40.861Z,19.72
2023-09-27T14:59:08.550Z,19.72
2023-09-27T15:01:36.388Z,19.72
2023-09-27T15:04:04.724Z,19.72
2023-09-27T15:06:33.439Z,19.73
2023-09-27T15:09:01.311Z,19.73
2023-09-27T15:11:30.476Z,19.73
2023-09-27T15:13:59.377Z,19.74
2023-09-27T15:16:27.082Z,19.75
2023-09-27T15:18:54.845Z,19.75
2023-09-27T15:21:22.619Z,19.75
2023-09-27T15:23:50.686Z,19.76
2023-09-27T15:26:19.491Z,19.76
2023-09-27T15:28:48.564Z,19.76
2023-09-27T15:31:16.245Z,19.76
2023-09-27T15:33:44.090Z,19.76
2023-09-27T15:36:12.935Z,19.76
2023-09-27T15:38:44.503Z,19.76
2023-09-27T15:41:16.275Z,19.75
2023-09-27T15:43:44.705Z,19.75
2023-09-27T15:46:16.549Z,19.74
2023-09-27T15:48:44.987Z,19.74
2023-09-27T15:51:14.024Z,19.72
2023-09-27T15:53:42.122Z,19.71
2023-09-27T15:56:11.442Z,19.70
2023-09-27T15:58:39.997Z,19.70
2023-09-27T16:01:08.786Z,19.70
2023-09-27T16:03:37.814Z,19.69
2023-09-27T16:06:05.848Z,19.69
2023-09-27T16:08:33.750Z,19.67
2023-09-27T16:11:01.573Z,19.66
2023-09-27T16:13:29.540Z,19.67
2023-09-27T16:15:57.298Z,19.66
2023-09-27T16:18:25.023Z,19.65
2023-09-27T16:20:54.003Z,19.65
2023-09-27T16:23:21.703Z,19.63
2023-09-27T16:25:50.838Z,19.61
2023-09-27T16:28:18.552Z,19.60
2023-09-27T16:30:47.598Z,19.58
2023-09-27T16:33:15.560Z,19.56
2023-09-27T16:35:43.543Z,19.56
2023-09-27T16:38:12.706Z,19.54
2023-09-27T16:40:41.755Z,19.52
2023-09-27T16:43:09.582Z,19.50
2023-09-27T16:45:38.419Z,19.45
2023-09-27T16:48:06.720Z,19.45
2023-09-27T16:50:34.422Z,19.43
2023-09-27T16:53:02.479Z,19.41
2023-09-27T16:55:31.755Z,19.40
2023-09-27T16:57:59.744Z,19.37
2023-09-27T17:00:27.501Z,19.36
2023-09-27T17:02:55.352Z,19.35
2023-09-27T17:05:23.241Z,19.34
2023-09-27T17:07:50.927Z,19.33
2023-09-27T17:10:18.805Z,19.31
2023-09-27T17:12:47.856Z,19.30
2023-09-27T17:15:16.206Z,19.30
2023-09-27T17:17:43.930Z,19.29
2023-09-27T17:20:12.280Z,19.27
2023-09-27T17:22:40.122Z,19.28
2023-09-27T17:25:10.317Z,19.27
2023-09-27T17:27:38.307Z,19.28
2023-09-27T17:30:08.592Z,19.28
2023-09-27T17:32:36.807Z,19.26
2023-09-27T17:35:05.894Z,19.23
2023-09-27T17:37:33.732Z,19.22
2023-09-27T17:40:04.784Z,19.21
2023-09-27T17:42:32.444Z,19.18
2023-09-27T17:45:00.157Z,19.17
2023-09-27T17:47:29.264Z,19.16
2023-09-27T17:49:56.980Z,19.14
2023-09-27T17:52:24.734Z,19.13
2023-09-27T17:54:53.536Z,19.11
2023-09-27T17:57:21.517Z,19.13
2023-09-27T17:59:49.160Z,19.10
2023-09-27T18:02:17.337Z,19.09
2023-09-27T18:04:46.741Z,19.08
2023-09-27T18:07:14.686Z,19.05
2023-09-27T18:09:42.392Z,19.05
2023-09-27T18:12:10.167Z,19.03
2023-09-27T18:14:38.345Z,19.02
2023-09-27T18:17:06.179Z,19.01
2023-09-27T18:19:34.213Z,19.00
2023-09-27T18:22:04.171Z,18.99
2023-09-27T18:24:31.872Z,18.96
2023-09-27T18:26:59.582Z,18.94
2023-09-27T18:29:27.253Z,18.93
2023-09-27T18:31:54.994Z,18.93
2023-09-27T18:34:22.858Z,18.91
2023-09-27T18:36:50.541Z,18.90
2023-09-27T18:39:19.675Z,18.88
2023-09-27T18:41:47.439Z,18.87
2023-09-27T18:44:15.406Z,18.85
2023-09-27T18:46:43.185Z,18.84
2023-09-27T18:49:11.128Z,18.83
2023-09-27T18:51:38.775Z,18.84
2023-09-27T18:54:08.098Z,18.82
2023-09-27T18:56:38.327Z,18.78
2023-09-27T18:59:06.134Z,18.76
2023-09-27T19:01:34.832Z,18.74
2023-09-27T19:04:03.364Z,18.73
2023-09-27T19:06:32.359Z,18.73
2023-09-27T19:09:00.069Z,18.73
2023-09-27T19:11:31.033Z,18.71
2023-09-27T19:14:00.152Z,18.69
2023-09-27T19:16:31.513Z,18.68
2023-09-27T19:18:59.920Z,18.68
2023-09-27T19:21:27.690Z,18.66
2023-09-27T19:23:55.360Z,18.64
2023-09-27T19:26:23.917Z,18.64
2023-09-27T19:28:52.379Z,18.63
2023-09-27T19:31:21.592Z,18.60
2023-09-27T19:33:51.241Z,18.61
2023-09-27T19:36:21.523Z,18.58
2023-09-27T19:38:49.818Z,18.56
2023-09-27T19:41:17.945Z,18.55
2023-09-27T19:43:45.778Z,18.53
2023-09-27T19:46:26.693Z,18.55
2023-09-27T19:48:56.124Z,18.57
2023-09-27T19:51:25.631Z,18.55
2023-09-27T19:53:54.554Z,18.55
2023-09-27T19:56:22.735Z,18.55
2023-09-27T19:58:50.956Z,18.54
2023-09-27T20:01:32.299Z,18.52
2023-09-27T20:04:00.419Z,18.51
2023-09-27T20:06:28.967Z,18.50
2023-09-27T20:08:56.687Z,18.51
2023-09-27T20:11:24.598Z,18.51
2023-09-27T20:13:52.550Z,18.50
2023-09-27T20:16:20.512Z,18.49
2023-09-27T20:18:50.208Z,18.50
2023-09-27T20:21:19.202Z,18.49
2023-09-27T20:23:46.879Z,18.50
2023-09-27T20:26:15.246Z,18.49
2023-09-27T20:28:42.930Z,18.47
2023-09-27T20:31:10.702Z,18.45
2023-09-27T20:33:38.564Z,18.45
2023-09-27T20:36:13.261Z,18.44
2023-09-27T20:38:41.127Z,18.43
2023-09-27T20:41:09.231Z,18.41
2023-09-27T20:43:37.061Z,18.40
2023-09-27T20:46:05.433Z,18.40
2023-09-27T20:48:33.214Z,18.38
2023-09-27T20:51:01.322Z,18.38
2023-09-27T20:53:30.301Z,18.37
2023-09-27T20:56:03.715Z,18.37
2023-09-27T20:58:31.722Z,18.37
2023-09-27T21:01:01.550Z,18.35
2023-09-27T21:03:29.292Z,18.33
2023-09-27T21:05:56.948Z,18.32
2023-09-27T21:08:23.615Z,18.31
2023-09-27T21:10:52.711Z,18.28
2023-09-27T21:13:20.806Z,18.28
2023-09-27T21:15:48.761Z,18.27
2023-09-27T21:18:16.503Z,18.27
2023-09-27T21:20:44.275Z,18.25
2023-09-27T21:23:12.001Z,18.26
2023-09-27T21:25:40.779Z,18.24
2023-09-27T21:28:10.101Z,18.21
2023-09-27T21:30:38.552Z,18.19
2023-09-27T21:33:06.408Z,18.18
2023-09-27T21:35:34.139Z,18.17
2023-09-27T21:38:01.953Z,18.17
2023-09-27T21:40:29.778Z,18.15
2023-09-27T21:42:58.329Z,18.14
2023-09-27T21:45:27.625Z,18.13
2023-09-27T21:47:55.378Z,18.13
2023-09-27T21:50:23.122Z,18.11
2023-09-27T21:52:50.862Z,18.11
2023-09-27T21:55:18.575Z,18.08
2023-09-27T21:57:46.243Z,18.06
2023-09-27T22:00:21.178Z,18.05
2023-09-27T22:02:50.425Z,18.04
2023-09-27T22:05:20.429Z,18.04
2023-09-27T22:07:48.120Z,18.03
2023-09-27T22:10:19.092Z,18.01
2023-09-27T22:12:46.927Z,17.99
2023-09-27T22:15:15.999Z,17.99
2023-09-27T22:17:44.264Z,17.97
2023-09-27T22:20:13.757Z,17.95
2023-09-27T22:22:41.827Z,17.95
2023-09-27T22:25:13.889Z,17.94
2023-09-27T22:27:42.340Z,17.92
2023-09-27T22:30:13.953Z,17.93
2023-09-27T22:32:42.471Z,17.90
2023-09-27T22:35:27.422Z,17.90
2023-09-27T22:37:57.039Z,17.88
2023-09-27T22:40:25.473Z,17.86
2023-09-27T22:42:54.065Z,17.85
2023-09-27T22:45:31.526Z,17.85
2023-09-27T22:47:59.423Z,17.85
2023-09-27T22:50:31.162Z,17.84
2023-09-27T22:52:59.520Z,17.82
2023-09-27T22:55:28.527Z,17.80
2023-09-27T22:57:56.573Z,17.79
2023-09-27T23:00:26.340Z,17.78
2023-09-27T23:02:56.734Z,17.77
2023-09-27T23:05:40.187Z,17.77
2023-09-27T23:08:11.351Z,17.75
2023-09-27T23:10:40.730Z,17.74
2023-09-27T23:13:35.929Z,17.73
2023-09-27T23:16:37.356Z,17.72
2023-09-27T23:19:05.744Z,17.71
2023-09-27T23:21:34.943Z,17.70
2023-09-27T23:24:33.296Z,17.69
2023-09-27T23:27:04.178Z,17.68
2023-09-27T23:29:38.194Z,17.69
2023-09-27T23:32:24.517Z,17.66
2023-09-27T23:34:54.964Z,17.66
2023-09-27T23:37:32.076Z,17.66
2023-09-27T23:40:02.912Z,17.65
2023-09-27T23:42:35.810Z,17.64
2023-09-27T23:45:09.966Z,17.63
2023-09-27T23:47:44.369Z,17.62
2023-09-27T23:50:16.150Z,17.61
2023-09-27T23:52:46.914Z,17.61
2023-09-27T23:55:21.614Z,17.61
2023-09-27T23:57:49.530Z,17.59
